createdAt,value
2023-01-13T00:01:29.207Z,100.00
2023-01-13T00:03:56.538Z,100.00
2023-01-13T00:06:26.009Z,100.00
2023-01-13T00:08:52.630Z,100.00
2023-01-13T00:11:20.452Z,100.00
2023-01-13T00:13:47.279Z,100.00
2023-01-13T00:16:18.202Z,99.97
2023-01-13T00:18:45.213Z,100.00
2023-01-13T00:21:13.029Z,100.00
2023-01-13T00:23:40.088Z,100.00
2023-01-13T00:26:08.027Z,100.00
2023-01-13T00:28:34.602Z,100.00
2023-01-13T00:31:04.838Z,100.00
2023-01-13T00:33:31.374Z,100.00
2023-01-13T00:35:58.598Z,100.00
2023-01-13T00:38:25.157Z,100.00
2023-01-13T00:40:58.646Z,100.00
2023-01-13T00:43:25.838Z,100.00
2023-01-13T00:45:53.020Z,100.00
2023-01-13T00:48:20.223Z,100.00
2023-01-13T00:50:46.764Z,100.00
2023-01-13T00:53:14.934Z,100.00
2023-01-13T00:55:41.454Z,100.00
2023-01-13T00:58:08.001Z,100.00
2023-01-13T01:00:34.477Z,100.00
2023-01-13T01:03:00.980Z,100.00
2023-01-13T01:05:27.470Z,100.00
2023-01-13T01:07:53.986Z,100.00
2023-01-13T01:10:20.481Z,100.00
2023-01-13T01:12:46.978Z,100.00
2023-01-13T01:15:13.501Z,100.00
2023-01-13T01:17:40.070Z,100.00
2023-01-13T01:20:06.833Z,100.00
2023-01-13T01:22:33.533Z,100.00
2023-01-13T01:25:00.060Z,100.00
2023-01-13T01:27:26.625Z,100.00
2023-01-13T01:29:53.169Z,100.00
2023-01-13T01:32:19.618Z,100.00
2023-01-13T01:34:46.084Z,100.00
2023-01-13T01:37:12.569Z,100.00
2023-01-13T01:39:45.154Z,100.00
2023-01-13T01:42:38.996Z,100.00
2023-01-13T01:45:17.647Z,100.00
2023-01-13T01:47:45.328Z,100.00
2023-01-13T01:50:11.996Z,100.00
2023-01-13T01:52:42.045Z,100.00
2023-01-13T01:55:17.950Z,100.00
2023-01-13T01:58:05.928Z,100.00
2023-01-13T02:00:32.563Z,100.00
2023-01-13T02:02:59.595Z,100.00
2023-01-13T02:05:26.363Z,100.00
2023-01-13T02:07:54.417Z,100.00
2023-01-13T02:10:23.448Z,100.00
2023-01-13T02:12:50.923Z,100.00
2023-01-13T02:15:18.615Z,100.00
2023-01-13T02:17:51.225Z,100.00
2023-01-13T02:20:33.099Z,100.00
2023-01-13T02:23:36.548Z,100.00
2023-01-13T02:26:03.065Z,100.00
2023-01-13T02:29:01.922Z,100.00
2023-01-13T02:31:42.273Z,100.00
2023-01-13T02:34:11.354Z,100.00
2023-01-13T02:36:42.056Z,100.00
2023-01-13T02:39:19.034Z,100.00
2023-01-13T02:42:07.302Z,100.00
2023-01-13T02:44:55.825Z,100.00
2023-01-13T02:47:24.724Z,100.00
2023-01-13T02:50:04.777Z,100.00
2023-01-13T02:52:34.148Z,100.00
2023-01-13T02:55:03.709Z,100.00
2023-01-13T02:57:32.538Z,100.00
2023-01-13T02:59:59.318Z,100.00
2023-01-13T03:02:26.150Z,100.00
2023-01-13T03:04:54.333Z,100.00
2023-01-13T03:07:34.644Z,100.00
2023-01-13T03:10:16.615Z,100.00
2023-01-13T03:13:02.078Z,100.00
2023-01-13T03:15:49.261Z,100.00
2023-01-13T03:18:34.571Z,100.00
2023-01-13T03:21:07.213Z,100.00
2023-01-13T03:23:37.492Z,100.00
2023-01-13T03:26:13.299Z,99.88
2023-01-13T03:28:42.915Z,99.99
2023-01-13T03:31:16.007Z,99.87
2023-01-13T03:33:53.674Z,99.87
2023-01-13T03:36:23.255Z,99.91
2023-01-13T03:38:52.869Z,99.93
2023-01-13T03:41:32.880Z,99.73
2023-01-13T03:44:24.154Z,99.86
2023-01-13T03:46:54.496Z,99.91
2023-01-13T03:49:23.676Z,99.93
2023-01-13T03:51:54.557Z,99.83
2023-01-13T03:54:23.418Z,99.86
2023-01-13T03:56:57.245Z,99.87
2023-01-13T03:59:25.593Z,100.00
2023-01-13T04:02:01.243Z,100.00
2023-01-13T04:04:46.579Z,100.00
2023-01-13T04:07:18.646Z,100.00
2023-01-13T04:09:45.115Z,99.93
2023-01-13T04:12:14.289Z,100.00
2023-01-13T04:14:41.708Z,100.00
2023-01-13T04:17:08.195Z,100.00
2023-01-13T04:19:34.758Z,100.00
2023-01-13T04:22:01.327Z,100.00
2023-01-13T04:24:28.139Z,100.00
2023-01-13T04:26:56.566Z,100.00
2023-01-13T04:29:23.267Z,100.00
2023-01-13T04:31:49.794Z,100.00
2023-01-13T04:34:16.394Z,100.00
2023-01-13T04:36:43.004Z,100.00
2023-01-13T04:39:09.502Z,100.00
2023-01-13T04:42:08.373Z,100.00
2023-01-13T04:44:37.470Z,100.00
2023-01-13T04:47:04.471Z,100.00
2023-01-13T04:49:31.489Z,100.00
2023-01-13T04:51:58.027Z,100.00
2023-01-13T04:54:24.566Z,100.00
2023-01-13T04:56:51.060Z,100.00
2023-01-13T04:59:17.577Z,100.00
2023-01-13T05:01:44.118Z,100.00
2023-01-13T05:04:10.790Z,100.00
2023-01-13T05:06:37.213Z,100.00
2023-01-13T05:09:03.796Z,100.00
2023-01-13T05:11:48.988Z,100.00
2023-01-13T05:14:34.998Z,100.00
2023-01-13T05:17:01.664Z,100.00
2023-01-13T05:19:29.023Z,100.00
2023-01-13T05:22:14.187Z,100.00
2023-01-13T05:24:59.088Z,100.00
2023-01-13T05:27:25.810Z,100.00
2023-01-13T05:29:52.326Z,100.00
2023-01-13T05:32:18.872Z,100.00
2023-01-13T05:34:48.160Z,100.00
2023-01-13T05:37:15.048Z,100.00
2023-01-13T05:40:00.302Z,100.00
2023-01-13T05:42:48.108Z,100.00
2023-01-13T05:45:14.772Z,100.00
2023-01-13T05:47:41.318Z,100.00
2023-01-13T05:50:08.738Z,100.00
2023-01-13T05:52:39.419Z,100.00
2023-01-13T05:55:06.313Z,100.00
2023-01-13T05:57:32.914Z,100.00
2023-01-13T05:59:59.592Z,100.00
2023-01-13T06:02:26.739Z,100.00
2023-01-13T06:04:53.511Z,100.00
2023-01-13T06:07:20.079Z,100.00
2023-01-13T06:09:46.658Z,99.98
2023-01-13T06:12:13.589Z,100.00
2023-01-13T06:14:40.142Z,99.92
2023-01-13T06:17:11.004Z,100.00
2023-01-13T06:19:37.521Z,99.89
2023-01-13T06:22:13.655Z,99.99
2023-01-13T06:24:40.270Z,99.93
2023-01-13T06:27:07.886Z,100.00
2023-01-13T06:29:34.494Z,99.99
2023-01-13T06:32:06.355Z,100.00
2023-01-13T06:34:34.043Z,99.87
2023-01-13T06:37:01.532Z,100.00
2023-01-13T06:39:31.101Z,100.00
2023-01-13T06:42:17.206Z,99.95
2023-01-13T06:44:44.476Z,99.58
2023-01-13T06:47:11.092Z,99.79
2023-01-13T06:49:37.580Z,99.87
2023-01-13T06:52:04.170Z,99.79
2023-01-13T06:54:30.870Z,99.68
2023-01-13T06:56:57.469Z,99.66
2023-01-13T06:59:25.267Z,99.63
2023-01-13T07:01:51.908Z,99.66
2023-01-13T07:04:19.201Z,99.59
2023-01-13T07:06:45.783Z,99.50
2023-01-13T07:09:12.572Z,99.41
2023-01-13T07:11:39.327Z,99.51
2023-01-13T07:14:38.539Z,99.31
2023-01-13T07:17:05.663Z,99.48
2023-01-13T07:19:35.008Z,99.42
2023-01-13T07:22:01.678Z,99.28
2023-01-13T07:24:28.554Z,99.33
2023-01-13T07:26:55.063Z,99.11
2023-01-13T07:29:21.550Z,99.29
2023-01-13T07:31:49.984Z,98.96
2023-01-13T07:34:17.099Z,98.93
2023-01-13T07:36:43.745Z,98.89
2023-01-13T07:39:10.466Z,98.83
2023-01-13T07:41:55.940Z,98.68
2023-01-13T07:44:22.504Z,98.38
2023-01-13T07:46:49.180Z,98.27
2023-01-13T07:49:15.915Z,98.06
2023-01-13T07:51:43.160Z,97.85
2023-01-13T07:54:09.678Z,97.65
2023-01-13T07:56:36.361Z,97.18
2023-01-13T07:59:03.663Z,96.98
2023-01-13T08:01:33.839Z,97.06
2023-01-13T08:04:00.444Z,96.71
2023-01-13T08:06:26.985Z,96.65
2023-01-13T08:08:53.957Z,96.60
2023-01-13T08:11:23.343Z,96.33
2023-01-13T08:13:50.071Z,95.69
2023-01-13T08:16:16.883Z,95.49
2023-01-13T08:18:44.276Z,95.12
2023-01-13T08:21:14.872Z,94.81
2023-01-13T08:23:42.306Z,94.64
2023-01-13T08:26:10.596Z,94.49
2023-01-13T08:28:37.086Z,94.55
2023-01-13T08:31:06.231Z,94.29
2023-01-13T08:33:33.378Z,94.18
2023-01-13T08:36:02.659Z,94.06
2023-01-13T08:38:29.328Z,94.11
2023-01-13T08:40:55.909Z,94.11
2023-01-13T08:43:22.533Z,94.07
2023-01-13T08:46:00.048Z,93.97
2023-01-13T08:48:28.246Z,93.92
2023-01-13T08:51:01.693Z,94.18
2023-01-13T08:53:28.197Z,94.39
2023-01-13T08:55:54.765Z,94.25
2023-01-13T08:58:21.315Z,94.28
2023-01-13T09:00:47.796Z,94.01
2023-01-13T09:03:14.379Z,93.29
2023-01-13T09:05:40.857Z,92.92
2023-01-13T09:08:10.087Z,92.48
2023-01-13T09:10:37.070Z,91.96
2023-01-13T09:13:12.700Z,91.49
2023-01-13T09:15:44.140Z,91.15
2023-01-13T09:18:11.386Z,90.54
2023-01-13T09:20:38.017Z,90.07
2023-01-13T09:23:05.656Z,90.15
2023-01-13T09:25:32.666Z,89.86
2023-01-13T09:27:59.244Z,89.46
2023-01-13T09:30:25.831Z,89.04
2023-01-13T09:33:12.296Z,88.90
2023-01-13T09:35:38.925Z,88.65
2023-01-13T09:38:06.340Z,88.86
2023-01-13T09:40:32.944Z,88.42
2023-01-13T09:43:21.582Z,88.30
2023-01-13T09:46:00.767Z,87.34
2023-01-13T09:48:35.582Z,87.51
2023-01-13T09:51:21.076Z,87.39
2023-01-13T09:53:47.665Z,87.49
2023-01-13T09:56:14.356Z,87.24
2023-01-13T09:58:41.010Z,87.38
2023-01-13T10:01:26.001Z,87.23
2023-01-13T10:03:53.609Z,87.42
2023-01-13T10:06:42.387Z,87.02
2023-01-13T10:09:14.427Z,86.95
2023-01-13T10:12:01.869Z,86.67
2023-01-13T10:14:32.420Z,85.57
2023-01-13T10:17:04.785Z,86.00
2023-01-13T10:19:34.833Z,86.17
2023-01-13T10:22:01.344Z,85.92
2023-01-13T10:24:27.882Z,84.86
2023-01-13T10:26:57.474Z,85.24
2023-01-13T10:29:27.237Z,83.75
2023-01-13T10:31:54.773Z,84.90
2023-01-13T10:34:22.636Z,85.45
2023-01-13T10:37:08.219Z,84.17
2023-01-13T10:39:42.307Z,83.96
2023-01-13T10:42:14.021Z,83.88
2023-01-13T10:45:08.048Z,84.78
2023-01-13T10:47:35.774Z,84.24
2023-01-13T10:50:02.453Z,85.56
2023-01-13T10:52:30.617Z,85.48
2023-01-13T10:54:57.291Z,86.08
2023-01-13T10:57:25.163Z,85.46
2023-01-13T10:59:53.113Z,85.43
2023-01-13T11:02:25.690Z,85.22
2023-01-13T11:04:53.035Z,84.42
2023-01-13T11:07:29.428Z,84.45
2023-01-13T11:10:17.824Z,82.44
2023-01-13T11:12:48.423Z,80.96
2023-01-13T11:15:22.060Z,81.35
2023-01-13T11:18:09.429Z,80.61
2023-01-13T11:20:41.467Z,82.23
2023-01-13T11:23:29.276Z,80.51
2023-01-13T11:26:02.989Z,81.58
2023-01-13T11:28:29.515Z,81.64
2023-01-13T11:31:05.373Z,81.10
2023-01-13T11:33:32.002Z,81.48
2023-01-13T11:35:58.524Z,81.67
2023-01-13T11:38:57.178Z,81.77
2023-01-13T11:41:27.645Z,82.11
2023-01-13T11:43:59.412Z,82.16
2023-01-13T11:46:30.675Z,82.18
2023-01-13T11:48:57.362Z,82.30
2023-01-13T11:51:23.995Z,82.05
2023-01-13T11:53:50.472Z,81.34
2023-01-13T11:56:16.981Z,81.25
2023-01-13T11:58:51.113Z,81.20
2023-01-13T12:01:22.973Z,82.56
2023-01-13T12:04:02.175Z,82.78
2023-01-13T12:06:36.780Z,82.87
2023-01-13T12:09:14.305Z,83.07
2023-01-13T12:12:05.990Z,83.05
2023-01-13T12:14:35.298Z,82.85
2023-01-13T12:17:02.768Z,82.62
2023-01-13T12:19:29.903Z,82.16
2023-01-13T12:21:56.458Z,82.62
2023-01-13T12:24:33.537Z,83.09
2023-01-13T12:27:06.592Z,83.38
2023-01-13T12:29:36.364Z,83.61
2023-01-13T12:32:24.629Z,83.72
2023-01-13T12:35:00.509Z,83.60
2023-01-13T12:38:18.119Z,83.60
2023-01-13T12:41:23.938Z,83.71
2023-01-13T12:44:15.216Z,83.43
2023-01-13T12:46:46.880Z,83.33
2023-01-13T12:49:24.058Z,83.40
2023-01-13T12:51:56.504Z,83.41
2023-01-13T12:55:08.018Z,83.48
2023-01-13T13:00:21.450Z,83.51
2023-01-13T13:03:07.426Z,83.86
2023-01-13T13:06:04.511Z,84.42
2023-01-13T13:08:41.715Z,83.91
2023-01-13T13:11:37.537Z,84.30
2023-01-13T13:14:14.334Z,84.53
2023-01-13T13:16:51.209Z,84.51
2023-01-13T13:19:21.377Z,84.76
2023-01-13T13:22:06.677Z,84.60
2023-01-13T13:24:33.218Z,84.69
2023-01-13T13:27:16.644Z,84.48
2023-01-13T13:29:43.505Z,84.52
2023-01-13T13:32:20.896Z,84.87
2023-01-13T13:35:05.936Z,84.87
2023-01-13T13:38:03.481Z,85.00
2023-01-13T13:40:50.980Z,85.92
2023-01-13T13:43:38.136Z,85.84
2023-01-13T13:46:40.185Z,85.75
2023-01-13T13:49:09.403Z,85.73
2023-01-13T13:51:41.949Z,85.75
2023-01-13T13:54:10.576Z,85.52
2023-01-13T13:56:40.548Z,85.63
2023-01-13T13:59:09.828Z,85.70
2023-01-13T14:01:37.937Z,85.64
2023-01-13T14:04:27.519Z,85.62
2023-01-13T14:06:58.145Z,85.47
2023-01-13T14:09:25.622Z,85.63
2023-01-13T14:11:57.299Z,85.91
2023-01-13T14:14:25.109Z,85.85
2023-01-13T14:16:52.192Z,86.38
2023-01-13T14:19:44.303Z,86.34
2023-01-13T14:22:16.373Z,86.73
2023-01-13T14:24:47.103Z,86.71
2023-01-13T14:27:16.112Z,86.81
2023-01-13T14:29:42.952Z,86.79
2023-01-13T14:32:13.145Z,86.99
2023-01-13T14:34:40.150Z,87.22
2023-01-13T14:37:22.785Z,87.10
2023-01-13T14:39:49.331Z,87.45
2023-01-13T14:42:17.052Z,87.00
2023-01-13T14:44:46.876Z,87.11
2023-01-13T14:47:28.063Z,86.86
2023-01-13T14:50:06.228Z,87.05
2023-01-13T14:52:34.556Z,87.13
2023-01-13T14:55:10.325Z,87.23
2023-01-13T14:57:39.530Z,87.16
2023-01-13T15:00:23.889Z,87.39
2023-01-13T15:02:53.650Z,87.39
2023-01-13T15:05:20.255Z,87.51
2023-01-13T15:07:49.758Z,88.20
2023-01-13T15:10:39.382Z,88.34
2023-01-13T15:13:10.790Z,87.84
2023-01-13T15:15:39.355Z,87.88
2023-01-13T15:18:11.156Z,88.15
2023-01-13T15:20:38.953Z,88.32
2023-01-13T15:23:05.491Z,88.24
2023-01-13T15:25:34.142Z,88.12
2023-01-13T15:28:00.870Z,88.20
2023-01-13T15:30:27.834Z,88.22
2023-01-13T15:32:55.426Z,88.76
2023-01-13T15:35:23.075Z,88.71
2023-01-13T15:37:50.001Z,89.17
2023-01-13T15:40:18.967Z,88.81
2023-01-13T15:43:04.078Z,88.77
2023-01-13T15:45:49.947Z,89.06
2023-01-13T15:48:16.598Z,89.90
2023-01-13T15:50:43.108Z,90.34
2023-01-13T15:53:13.248Z,90.07
2023-01-13T15:55:42.732Z,90.25
2023-01-13T15:58:16.401Z,90.13
2023-01-13T16:00:43.021Z,89.91
2023-01-13T16:03:13.375Z,89.77
2023-01-13T16:05:40.635Z,89.77
2023-01-13T16:08:25.058Z,90.38
2023-01-13T16:10:57.361Z,90.04
2023-01-13T16:13:23.846Z,91.12
2023-01-13T16:15:50.512Z,91.63
2023-01-13T16:18:18.455Z,91.84
2023-01-13T16:20:45.505Z,91.81
2023-01-13T16:23:12.328Z,91.46
2023-01-13T16:25:39.549Z,91.53
2023-01-13T16:28:06.274Z,90.99
2023-01-13T16:30:37.013Z,90.99
2023-01-13T16:33:03.833Z,90.89
2023-01-13T16:35:32.105Z,91.00
2023-01-13T16:37:59.899Z,91.03
2023-01-13T16:40:34.219Z,90.98
2023-01-13T16:43:03.255Z,91.01
2023-01-13T16:45:30.427Z,91.00
2023-01-13T16:47:57.067Z,90.99
2023-01-13T16:50:37.101Z,91.50
2023-01-13T16:53:04.427Z,91.55
2023-01-13T16:55:31.043Z,91.72
2023-01-13T16:57:58.002Z,92.57
2023-01-13T17:00:24.708Z,92.82
2023-01-13T17:02:51.319Z,92.45
2023-01-13T17:05:17.987Z,92.30
2023-01-13T17:07:45.390Z,92.48
2023-01-13T17:10:13.987Z,92.82
2023-01-13T17:12:40.469Z,92.79
2023-01-13T17:15:07.362Z,92.59
2023-01-13T17:17:33.844Z,92.51
2023-01-13T17:20:00.431Z,92.13
2023-01-13T17:22:27.014Z,92.64
2023-01-13T17:24:53.547Z,92.38
2023-01-13T17:27:21.256Z,92.21
2023-01-13T17:29:47.784Z,92.36
2023-01-13T17:32:15.442Z,92.44
2023-01-13T17:34:42.117Z,92.73
2023-01-13T17:37:09.452Z,93.07
2023-01-13T17:39:35.988Z,93.00
2023-01-13T17:42:02.498Z,93.45
2023-01-13T17:44:28.955Z,93.37
2023-01-13T17:46:55.471Z,93.40
2023-01-13T17:49:22.095Z,93.79
2023-01-13T17:51:48.957Z,94.08
2023-01-13T17:54:17.715Z,93.97
2023-01-13T17:56:44.560Z,93.96
2023-01-13T17:59:11.804Z,94.10
2023-01-13T18:01:38.812Z,93.89
2023-01-13T18:04:08.913Z,93.72
2023-01-13T18:06:38.106Z,93.76
2023-01-13T18:09:04.652Z,94.07
2023-01-13T18:11:31.190Z,94.32
2023-01-13T18:13:57.739Z,94.39
2023-01-13T18:16:25.171Z,94.23
2023-01-13T18:18:53.660Z,93.89
2023-01-13T18:21:43.139Z,94.00
2023-01-13T18:24:34.754Z,94.10
2023-01-13T18:27:22.654Z,94.38
2023-01-13T18:29:55.729Z,94.89
2023-01-13T18:32:23.012Z,94.93
2023-01-13T18:34:53.922Z,95.56
2023-01-13T18:37:25.595Z,95.42
2023-01-13T18:39:52.114Z,95.02
2023-01-13T18:42:37.197Z,95.17
2023-01-13T18:45:04.010Z,94.64
2023-01-13T18:47:30.939Z,94.08
2023-01-13T18:49:57.500Z,94.07
2023-01-13T18:52:24.505Z,94.49
2023-01-13T18:54:51.118Z,94.21
2023-01-13T18:57:17.921Z,94.22
2023-01-13T18:59:45.132Z,94.39
2023-01-13T19:02:21.498Z,94.56
2023-01-13T19:04:48.200Z,94.11
2023-01-13T19:07:22.292Z,94.31
2023-01-13T19:09:52.013Z,94.33
2023-01-13T19:12:26.147Z,94.72
2023-01-13T19:14:53.595Z,94.29
2023-01-13T19:17:20.740Z,94.24
2023-01-13T19:19:49.012Z,94.45
2023-01-13T19:22:17.263Z,94.28
2023-01-13T19:24:43.893Z,94.94
2023-01-13T19:27:11.955Z,95.04
2023-01-13T19:29:38.436Z,94.70
2023-01-13T19:32:11.837Z,94.91
2023-01-13T19:34:38.491Z,95.00
2023-01-13T19:37:09.441Z,94.85
2023-01-13T19:39:42.693Z,94.96
2023-01-13T19:42:29.534Z,95.22
2023-01-13T19:45:15.073Z,95.50
2023-01-13T19:47:45.990Z,95.56
2023-01-13T19:50:13.680Z,95.65
2023-01-13T19:52:40.472Z,95.31
2023-01-13T19:55:07.180Z,95.22
2023-01-13T19:57:33.720Z,95.00
2023-01-13T20:00:00.273Z,95.27
2023-01-13T20:02:31.712Z,95.47
2023-01-13T20:04:59.578Z,95.87
2023-01-13T20:07:27.329Z,96.04
2023-01-13T20:09:54.020Z,95.83
2023-01-13T20:12:21.193Z,95.65
2023-01-13T20:14:47.920Z,96.07
2023-01-13T20:17:15.665Z,96.32
2023-01-13T20:19:42.493Z,96.78
2023-01-13T20:22:09.267Z,97.01
2023-01-13T20:24:35.912Z,96.72
2023-01-13T20:27:02.596Z,96.74
2023-01-13T20:29:29.700Z,96.55
2023-01-13T20:31:57.486Z,96.43
2023-01-13T20:34:24.632Z,96.32
2023-01-13T20:36:51.910Z,96.45
2023-01-13T20:39:22.842Z,96.67
2023-01-13T20:42:08.117Z,96.43
2023-01-13T20:44:34.721Z,96.60
2023-01-13T20:47:01.354Z,96.40
2023-01-13T20:49:27.894Z,96.39
2023-01-13T20:51:55.077Z,96.35
2023-01-13T20:54:22.103Z,96.36
2023-01-13T20:56:48.921Z,96.33
2023-01-13T20:59:15.918Z,96.07
2023-01-13T21:01:42.675Z,96.02
2023-01-13T21:04:09.659Z,96.06
2023-01-13T21:06:36.273Z,96.56
2023-01-13T21:09:02.817Z,96.91
2023-01-13T21:11:48.035Z,97.16
2023-01-13T21:14:34.271Z,97.44
2023-01-13T21:17:00.807Z,97.88
2023-01-13T21:19:27.379Z,97.76
2023-01-13T21:21:53.977Z,98.05
2023-01-13T21:24:20.432Z,97.85
2023-01-13T21:26:48.746Z,97.59
2023-01-13T21:29:17.553Z,97.48
2023-01-13T21:31:44.187Z,97.18
2023-01-13T21:34:11.093Z,97.09
2023-01-13T21:36:37.691Z,97.73
2023-01-13T21:39:05.006Z,97.65
2023-01-13T21:41:50.123Z,97.70
2023-01-13T21:44:36.198Z,97.84
2023-01-13T21:47:21.127Z,97.75
2023-01-13T21:49:47.659Z,97.91
2023-01-13T21:52:14.840Z,97.51
2023-01-13T21:55:01.578Z,97.73
2023-01-13T21:57:28.086Z,97.67
2023-01-13T21:59:54.542Z,97.69
2023-01-13T22:05:19.526Z,98.02
2023-01-13T22:07:46.107Z,98.28
2023-01-13T22:10:17.346Z,98.42
2023-01-13T22:12:43.983Z,98.54
2023-01-13T22:15:11.647Z,98.92
2023-01-13T22:17:38.172Z,98.79
2023-01-13T22:20:04.912Z,99.18
2023-01-13T22:22:36.699Z,99.11
2023-01-13T22:25:04.873Z,99.26
2023-01-13T22:27:31.383Z,98.97
2023-01-13T22:29:59.084Z,99.13
2023-01-13T22:32:25.608Z,99.15
2023-01-13T22:34:52.024Z,99.18
2023-01-13T22:37:24.625Z,98.98
2023-01-13T22:39:51.125Z,98.93
2023-01-13T22:42:27.291Z,98.94
2023-01-13T22:44:53.892Z,98.97
2023-01-13T22:50:07.069Z,98.74
2023-01-13T22:52:36.479Z,98.70
2023-01-13T22:55:03.189Z,98.49
2023-01-13T22:57:35.626Z,98.44
2023-01-13T23:00:05.889Z,98.17
2023-01-13T23:02:34.663Z,98.03
2023-01-13T23:05:01.502Z,97.81
2023-01-13T23:07:28.085Z,97.81
2023-01-13T23:09:54.529Z,97.72
2023-01-13T23:12:21.042Z,97.97
2023-01-13T23:14:47.497Z,97.76
2023-01-13T23:17:14.021Z,97.69
2023-01-13T23:19:40.495Z,97.77
2023-01-13T23:22:06.995Z,97.88
2023-01-13T23:24:33.616Z,97.79
2023-01-13T23:29:55.084Z,97.88
2023-01-13T23:32:22.507Z,97.69
2023-01-13T23:34:49.048Z,97.98
2023-01-13T23:37:15.590Z,98.07
2023-01-13T23:39:42.157Z,97.86
2023-01-13T23:42:08.676Z,97.78
2023-01-13T23:44:35.187Z,97.96
2023-01-13T23:47:01.913Z,97.91
2023-01-13T23:49:28.372Z,98.11
2023-01-13T23:51:54.927Z,98.35
2023-01-13T23:54:21.446Z,98.34
2023-01-13T23:56:49.807Z,98.64
2023-01-13T23:59:16.342Z,98.10
